createdAt,value
2024-01-05T00:01:08.196Z,3.92
2024-01-05T00:04:10.686Z,3.90
2024-01-05T00:07:13.197Z,3.76
2024-01-05T00:10:15.555Z,3.48
2024-01-05T00:13:17.889Z,3.18
2024-01-05T00:16:21.882Z,2.93
2024-01-05T00:19:24.424Z,2.81
2024-01-05T00:22:27.338Z,2.87
2024-01-05T00:25:29.687Z,2.98
2024-01-05T00:28:32.102Z,3.02
2024-01-05T00:31:34.505Z,3.23
2024-01-05T00:34:37.503Z,2.90
2024-01-05T00:37:40.003Z,2.80
2024-01-05T00:40:42.444Z,2.99
2024-01-05T00:43:44.788Z,3.18
2024-01-05T00:46:47.218Z,3.00
2024-01-05T00:49:49.803Z,2.83
2024-01-05T00:52:52.471Z,3.19
2024-01-05T00:55:54.802Z,3.46
2024-01-05T00:58:57.462Z,3.55
2024-01-05T01:01:59.791Z,3.29
2024-01-05T01:05:02.399Z,3.28
2024-01-05T01:08:05.133Z,3.36
2024-01-05T01:11:14.396Z,3.04
2024-01-05T01:14:16.898Z,3.35
2024-01-05T01:17:19.721Z,3.46
2024-01-05T01:20:22.109Z,4.03
2024-01-05T01:23:24.474Z,4.61
2024-01-05T01:26:26.874Z,5.10
2024-01-05T01:29:29.210Z,5.02
2024-01-05T01:32:31.552Z,5.30
2024-01-05T01:35:34.018Z,5.43
2024-01-05T01:38:36.455Z,5.78
2024-01-05T01:41:38.965Z,5.85
2024-01-05T01:44:41.352Z,5.51
2024-01-05T01:47:45.488Z,5.40
2024-01-05T01:50:49.792Z,5.77
2024-01-05T01:53:53.526Z,5.64
2024-01-05T01:56:56.699Z,5.85
2024-01-05T01:59:59.205Z,5.83
2024-01-05T02:03:04.745Z,5.88
2024-01-05T02:06:07.333Z,5.79
2024-01-05T02:09:09.760Z,5.77
2024-01-05T02:12:12.315Z,5.80
2024-01-05T02:15:14.716Z,5.79
2024-01-05T02:18:17.375Z,5.88
2024-01-05T02:21:24.253Z,5.74
2024-01-05T02:24:26.855Z,5.47
2024-01-05T02:27:29.404Z,5.52
2024-01-05T02:30:32.022Z,5.76
2024-01-05T02:33:34.739Z,5.66
2024-01-05T02:36:37.204Z,5.68
2024-01-05T02:39:39.658Z,5.54
2024-01-05T02:42:42.067Z,5.83
2024-01-05T02:45:44.736Z,5.92
2024-01-05T02:48:47.324Z,5.90
2024-01-05T02:51:49.806Z,5.69
2024-01-05T02:54:52.134Z,5.79
2024-01-05T02:57:54.488Z,5.82
2024-01-05T03:00:56.889Z,5.84
2024-01-05T03:04:02.087Z,5.90
2024-01-05T03:07:04.679Z,5.69
2024-01-05T03:10:07.788Z,5.79
2024-01-05T03:13:10.732Z,5.57
2024-01-05T03:16:13.176Z,5.57
2024-01-05T03:19:15.555Z,5.70
2024-01-05T03:22:17.924Z,5.64
2024-01-05T03:25:20.266Z,5.87
2024-01-05T03:28:22.663Z,5.91
2024-01-05T03:31:27.158Z,6.06
2024-01-05T03:34:29.694Z,5.92
2024-01-05T03:37:32.126Z,5.96
2024-01-05T03:40:34.481Z,5.93
2024-01-05T03:43:36.978Z,5.86
2024-01-05T03:46:39.334Z,5.86
2024-01-05T03:49:41.781Z,5.64
2024-01-05T03:52:44.167Z,5.70
2024-01-05T03:55:46.580Z,5.55
2024-01-05T03:58:49.014Z,5.54
2024-01-05T04:01:51.452Z,5.61
2024-01-05T04:04:53.906Z,5.51
2024-01-05T04:07:56.350Z,5.45
2024-01-05T04:10:58.684Z,5.34
2024-01-05T04:14:01.016Z,5.44
2024-01-05T04:17:03.451Z,5.34
2024-01-05T04:20:06.140Z,5.16
2024-01-05T04:23:08.585Z,4.81
2024-01-05T04:26:10.937Z,4.75
2024-01-05T04:29:13.390Z,4.58
2024-01-05T04:32:16.045Z,4.55
2024-01-05T04:35:18.463Z,4.44
2024-01-05T04:38:20.847Z,4.47
2024-01-05T04:41:23.679Z,3.94
2024-01-05T04:44:26.596Z,4.26
2024-01-05T04:47:29.021Z,3.95
2024-01-05T04:50:31.692Z,4.18
2024-01-05T04:53:34.209Z,4.14
2024-01-05T04:56:36.570Z,4.19
2024-01-05T04:59:38.921Z,3.99
2024-01-05T05:02:41.318Z,3.94
2024-01-05T05:05:43.799Z,4.03
2024-01-05T05:08:46.389Z,3.90
2024-01-05T05:11:48.754Z,3.72
2024-01-05T05:14:51.149Z,3.49
2024-01-05T05:17:55.117Z,3.56
2024-01-05T05:20:57.767Z,3.57
2024-01-05T05:24:00.316Z,3.44
2024-01-05T05:27:02.745Z,3.28
2024-01-05T05:30:07.648Z,3.43
2024-01-05T05:33:10.465Z,3.39
2024-01-05T05:36:12.991Z,3.65
2024-01-05T05:39:16.127Z,3.71
2024-01-05T05:42:18.538Z,3.32
2024-01-05T05:45:20.943Z,3.38
2024-01-05T05:48:24.170Z,3.19
2024-01-05T05:51:26.615Z,3.30
2024-01-05T05:54:29.027Z,3.17
2024-01-05T05:57:32.928Z,3.09
2024-01-05T06:00:36.909Z,3.24
2024-01-05T06:03:39.448Z,3.65
2024-01-05T06:06:42.111Z,3.51
2024-01-05T06:09:44.619Z,3.66
2024-01-05T06:12:47.734Z,3.72
2024-01-05T06:15:50.143Z,3.63
2024-01-05T06:18:52.765Z,3.67
2024-01-05T06:21:55.197Z,3.72
2024-01-05T06:24:57.535Z,3.53
2024-01-05T06:28:00.014Z,3.22
2024-01-05T06:31:02.477Z,3.44
2024-01-05T06:34:04.981Z,3.44
2024-01-05T06:37:07.394Z,3.43
2024-01-05T06:40:10.225Z,3.53
2024-01-05T06:43:12.556Z,3.51
2024-01-05T06:46:15.024Z,3.89
2024-01-05T06:49:18.085Z,3.73
2024-01-05T06:52:20.533Z,4.20
2024-01-05T06:55:23.004Z,4.09
2024-01-05T06:58:25.565Z,4.01
2024-01-05T07:01:28.154Z,4.26
2024-01-05T07:04:30.656Z,4.35
2024-01-05T07:07:33.132Z,4.21
2024-01-05T07:10:35.673Z,4.27
2024-01-05T07:13:38.051Z,4.13
2024-01-05T07:16:40.404Z,4.27
2024-01-05T07:19:42.932Z,4.45
2024-01-05T07:22:45.308Z,4.48
2024-01-05T07:25:47.672Z,4.78
2024-01-05T07:28:50.215Z,5.06
2024-01-05T07:31:52.588Z,5.47
2024-01-05T07:34:54.985Z,5.96
2024-01-05T07:37:57.396Z,6.36
2024-01-05T07:40:59.831Z,6.98
2024-01-05T07:44:02.201Z,7.08
2024-01-05T07:47:05.489Z,6.85
2024-01-05T07:50:08.027Z,7.22
2024-01-05T07:53:10.468Z,7.25
2024-01-05T07:56:12.871Z,7.30
2024-01-05T07:59:16.847Z,7.41
2024-01-05T08:02:19.640Z,7.99
2024-01-05T08:05:22.248Z,8.11
2024-01-05T08:08:24.672Z,8.26
2024-01-05T08:11:27.537Z,8.69
2024-01-05T08:14:29.950Z,8.95
2024-01-05T08:17:32.321Z,8.76
2024-01-05T08:20:35.306Z,9.07
2024-01-05T08:23:37.960Z,9.85
2024-01-05T08:26:40.394Z,10.13
2024-01-05T08:29:42.846Z,10.41
2024-01-05T08:32:45.392Z,10.93
2024-01-05T08:35:47.858Z,11.27
2024-01-05T08:38:50.343Z,11.40
2024-01-05T08:41:52.827Z,12.26
2024-01-05T08:44:55.190Z,12.61
2024-01-05T08:47:57.741Z,13.28
2024-01-05T08:51:00.454Z,13.08
2024-01-05T08:54:04.698Z,14.65
2024-01-05T08:57:10.764Z,14.54
2024-01-05T09:00:13.386Z,14.44
2024-01-05T09:03:16.010Z,15.40
2024-01-05T09:06:18.550Z,15.98
2024-01-05T09:09:20.960Z,17.43
2024-01-05T09:12:23.436Z,16.20
2024-01-05T09:15:26.139Z,14.47
2024-01-05T09:18:34.988Z,13.05
2024-01-05T09:21:37.686Z,13.07
2024-01-05T09:24:40.399Z,12.95
2024-01-05T09:27:42.882Z,13.00
2024-01-05T09:30:45.644Z,13.68
2024-01-05T09:33:51.109Z,13.52
2024-01-05T09:36:55.031Z,14.02
2024-01-05T09:39:57.569Z,14.21
2024-01-05T09:43:03.668Z,14.86
2024-01-05T09:46:06.315Z,15.29
2024-01-05T09:49:10.258Z,16.54
2024-01-05T09:52:16.901Z,16.41
2024-01-05T09:55:19.350Z,16.42
2024-01-05T09:58:22.464Z,15.79
2024-01-05T10:01:28.378Z,16.46
2024-01-05T10:04:31.658Z,16.27
2024-01-05T10:07:41.973Z,16.70
2024-01-05T10:10:49.737Z,16.55
2024-01-05T10:13:56.145Z,16.17
2024-01-05T10:17:11.635Z,15.79
2024-01-05T10:20:18.659Z,14.44
2024-01-05T10:23:21.520Z,13.38
2024-01-05T10:26:23.977Z,13.76
2024-01-05T10:29:26.685Z,14.45
2024-01-05T10:32:30.561Z,15.38
2024-01-05T10:35:35.399Z,15.98
2024-01-05T10:38:37.912Z,15.71
2024-01-05T10:41:40.312Z,13.99
2024-01-05T10:44:46.411Z,14.61
2024-01-05T10:47:52.223Z,14.97
2024-01-05T10:50:57.694Z,14.62
2024-01-05T10:54:00.872Z,15.38
2024-01-05T10:57:05.590Z,14.73
2024-01-05T11:00:08.830Z,15.23
2024-01-05T11:03:15.572Z,15.24
2024-01-05T11:06:18.953Z,13.78
2024-01-05T11:09:54.405Z,14.55
2024-01-05T11:13:15.223Z,15.03
2024-01-05T11:16:26.446Z,14.52
2024-01-05T11:19:52.911Z,15.11
2024-01-05T11:22:57.839Z,14.79
2024-01-05T11:26:00.336Z,14.90
2024-01-05T11:29:04.025Z,14.18
2024-01-05T11:32:06.714Z,14.93
2024-01-05T11:35:18.472Z,15.42
2024-01-05T11:38:26.660Z,15.40
2024-01-05T11:41:33.032Z,14.18
2024-01-05T11:44:36.879Z,14.32
2024-01-05T11:47:39.902Z,12.55
2024-01-05T11:50:42.298Z,12.74
2024-01-05T11:53:45.834Z,12.90
2024-01-05T11:56:48.166Z,12.90
2024-01-05T11:59:56.483Z,12.64
2024-01-05T12:03:05.865Z,12.30
2024-01-05T12:06:13.501Z,12.42
2024-01-05T12:09:16.284Z,12.32
2024-01-05T12:12:19.316Z,12.85
2024-01-05T12:15:22.541Z,12.42
2024-01-05T12:18:34.879Z,12.84
2024-01-05T12:21:40.856Z,12.70
2024-01-05T12:24:45.987Z,12.41
2024-01-05T12:27:49.138Z,12.74
2024-01-05T12:30:52.182Z,12.04
2024-01-05T12:33:55.038Z,12.38
2024-01-05T12:37:08.718Z,13.36
2024-01-05T12:40:12.808Z,13.86
2024-01-05T12:43:17.702Z,13.47
2024-01-05T12:46:21.272Z,14.22
2024-01-05T12:49:26.386Z,13.01
2024-01-05T12:52:38.809Z,13.64
2024-01-05T12:55:41.317Z,14.85
2024-01-05T12:58:45.722Z,14.93
2024-01-05T13:01:48.576Z,14.57
2024-01-05T13:04:51.287Z,14.87
2024-01-05T13:07:54.911Z,15.12
2024-01-05T13:10:57.264Z,14.60
2024-01-05T13:13:59.654Z,13.01
2024-01-05T13:17:02.199Z,12.29
2024-01-05T13:20:06.032Z,12.28
2024-01-05T13:23:09.054Z,12.14
2024-01-05T13:26:11.619Z,11.43
2024-01-05T13:29:14.002Z,11.66
2024-01-05T13:32:16.613Z,11.44
2024-01-05T13:35:19.122Z,11.27
2024-01-05T13:38:23.390Z,11.47
2024-01-05T13:41:25.850Z,11.11
2024-01-05T13:44:28.237Z,10.69
2024-01-05T13:47:30.677Z,10.70
2024-01-05T13:50:33.164Z,10.39
2024-01-05T13:53:35.579Z,10.11
2024-01-05T13:56:38.078Z,9.67
2024-01-05T13:59:40.424Z,9.54
2024-01-05T14:02:43.416Z,9.22
2024-01-05T14:05:45.915Z,9.38
2024-01-05T14:08:48.341Z,9.17
2024-01-05T14:11:51.479Z,9.48
2024-01-05T14:14:53.823Z,9.23
2024-01-05T14:17:56.687Z,9.15
2024-01-05T14:20:59.927Z,8.91
2024-01-05T14:24:03.093Z,8.74
2024-01-05T14:27:05.497Z,8.78
2024-01-05T14:30:09.620Z,8.78
2024-01-05T14:33:12.604Z,8.56
2024-01-05T14:36:15.392Z,8.44
2024-01-05T14:39:18.061Z,8.42
2024-01-05T14:42:20.480Z,8.26
2024-01-05T14:45:25.124Z,8.08
2024-01-05T14:48:29.542Z,7.99
2024-01-05T14:51:32.606Z,7.95
2024-01-05T14:54:35.109Z,7.69
2024-01-05T14:57:37.642Z,7.48
2024-01-05T15:00:40.104Z,7.57
2024-01-05T15:03:42.824Z,7.23
2024-01-05T15:06:45.361Z,7.13
2024-01-05T15:09:48.034Z,7.18
2024-01-05T15:12:53.805Z,7.08
2024-01-05T15:15:58.962Z,6.97
2024-01-05T15:19:04.073Z,6.64
2024-01-05T15:22:07.979Z,6.75
2024-01-05T15:25:16.129Z,6.87
2024-01-05T15:28:18.812Z,6.87
2024-01-05T15:31:22.211Z,6.82
2024-01-05T15:34:24.885Z,6.67
2024-01-05T15:37:27.339Z,6.58
2024-01-05T15:40:31.051Z,6.74
2024-01-05T15:43:37.145Z,6.69
2024-01-05T15:46:39.553Z,6.79
2024-01-05T15:49:42.168Z,6.74
2024-01-05T15:52:44.561Z,6.88
2024-01-05T15:55:51.842Z,6.92
2024-01-05T15:59:00.547Z,7.07
2024-01-05T16:02:04.597Z,7.10
2024-01-05T16:05:07.389Z,7.18
2024-01-05T16:08:10.039Z,7.15
2024-01-05T16:11:12.441Z,7.26
2024-01-05T16:14:15.303Z,7.06
2024-01-05T16:17:17.737Z,7.06
2024-01-05T16:20:20.438Z,7.14
2024-01-05T16:23:22.851Z,7.24
2024-01-05T16:26:26.423Z,7.17
2024-01-05T16:29:28.787Z,7.29
2024-01-05T16:32:31.267Z,7.38
2024-01-05T16:35:33.659Z,7.34
2024-01-05T16:38:37.434Z,7.24
2024-01-05T16:41:39.789Z,7.27
2024-01-05T16:44:43.661Z,6.95
2024-01-05T16:47:46.184Z,6.85
2024-01-05T16:50:48.908Z,6.79
2024-01-05T16:53:52.157Z,6.85
2024-01-05T16:56:55.166Z,6.61
2024-01-05T16:59:57.648Z,6.60
2024-01-05T17:03:04.315Z,6.58
2024-01-05T17:06:12.974Z,6.53
2024-01-05T17:09:21.894Z,6.45
2024-01-05T17:12:24.434Z,6.58
2024-01-05T17:15:26.895Z,6.57
2024-01-05T17:18:29.400Z,6.87
2024-01-05T17:21:31.908Z,6.85
2024-01-05T17:24:35.619Z,7.14
2024-01-05T17:27:38.098Z,7.18
2024-01-05T17:30:40.585Z,7.12
2024-01-05T17:33:44.097Z,7.19
2024-01-05T17:36:46.572Z,7.17
2024-01-05T17:39:49.092Z,7.23
2024-01-05T17:42:51.626Z,7.30
2024-01-05T17:45:54.279Z,7.45
2024-01-05T17:48:56.865Z,7.30
2024-01-05T17:51:59.451Z,7.37
2024-01-05T17:55:02.078Z,7.24
2024-01-05T17:58:04.611Z,7.30
2024-01-05T18:01:10.694Z,7.17
2024-01-05T18:04:16.003Z,7.13
2024-01-05T18:07:18.647Z,7.10
2024-01-05T18:10:21.129Z,7.16
2024-01-05T18:13:24.396Z,7.07
2024-01-05T18:16:28.671Z,7.18
2024-01-05T18:19:31.245Z,7.07
2024-01-05T18:22:33.684Z,7.10
2024-01-05T18:25:37.694Z,7.09
2024-01-05T18:28:40.078Z,7.30
2024-01-05T18:31:42.537Z,7.03
2024-01-05T18:34:46.568Z,7.03
2024-01-05T18:37:49.203Z,7.11
2024-01-05T18:40:51.605Z,7.07
2024-01-05T18:43:54.424Z,7.02
2024-01-05T18:46:56.810Z,7.02
2024-01-05T18:49:59.869Z,7.05
2024-01-05T18:53:02.272Z,7.17
2024-01-05T18:56:07.681Z,7.21
2024-01-05T18:59:10.204Z,7.02
2024-01-05T19:02:12.921Z,7.03
2024-01-05T19:05:15.579Z,7.15
2024-01-05T19:08:18.625Z,7.18
2024-01-05T19:11:21.269Z,7.11
2024-01-05T19:14:25.128Z,7.02
2024-01-05T19:17:28.083Z,7.17
2024-01-05T19:20:32.850Z,7.10
2024-01-05T19:23:35.410Z,6.98
2024-01-05T19:26:37.908Z,6.80
2024-01-05T19:29:43.664Z,6.78
2024-01-05T19:32:46.797Z,6.79
2024-01-05T19:35:49.637Z,6.61
2024-01-05T19:38:52.074Z,6.62
2024-01-05T19:41:54.480Z,6.59
2024-01-05T19:44:58.121Z,6.58
2024-01-05T19:48:00.563Z,6.61
2024-01-05T19:51:12.519Z,6.63
2024-01-05T19:54:16.292Z,6.60
2024-01-05T19:57:18.874Z,6.42
2024-01-05T20:00:22.389Z,6.75
2024-01-05T20:03:25.298Z,6.60
2024-01-05T20:06:27.843Z,6.81
2024-01-05T20:09:30.277Z,6.79
2024-01-05T20:12:32.734Z,6.81
2024-01-05T20:15:35.373Z,6.49
2024-01-05T20:18:37.914Z,6.89
2024-01-05T20:21:40.428Z,6.97
2024-01-05T20:24:42.875Z,6.78
2024-01-05T20:27:45.456Z,6.89
2024-01-05T20:30:48.266Z,6.72
2024-01-05T20:33:52.511Z,6.48
2024-01-05T20:36:55.505Z,6.57
2024-01-05T20:39:58.506Z,6.19
2024-01-05T20:43:00.904Z,5.98
2024-01-05T20:46:03.442Z,6.13
2024-01-05T20:49:05.925Z,6.07
2024-01-05T20:52:09.807Z,6.02
2024-01-05T20:55:12.214Z,6.04
2024-01-05T20:58:14.681Z,6.17
2024-01-05T21:01:18.830Z,6.27
2024-01-05T21:04:23.041Z,6.27
2024-01-05T21:07:25.828Z,6.13
2024-01-05T21:10:28.352Z,6.08
2024-01-05T21:13:30.812Z,6.10
2024-01-05T21:16:33.538Z,6.34
2024-01-05T21:19:40.554Z,6.34
2024-01-05T21:22:43.173Z,6.22
2024-01-05T21:25:46.698Z,6.21
2024-01-05T21:28:49.032Z,6.22
2024-01-05T21:31:52.113Z,6.16
2024-01-05T21:34:57.752Z,5.99
2024-01-05T21:38:01.407Z,6.13
2024-01-05T21:41:04.415Z,6.23
2024-01-05T21:44:07.650Z,6.33
2024-01-05T21:47:10.365Z,6.46
2024-01-05T21:50:13.347Z,6.61
2024-01-05T21:53:15.795Z,6.70
2024-01-05T21:56:18.930Z,6.59
2024-01-05T21:59:21.725Z,6.64
2024-01-05T22:02:24.197Z,6.57
2024-01-05T22:05:26.541Z,6.74
2024-01-05T22:08:29.122Z,6.53
2024-01-05T22:11:32.379Z,6.45
2024-01-05T22:14:34.794Z,6.47
2024-01-05T22:17:37.334Z,6.15
2024-01-05T22:20:41.078Z,6.31
2024-01-05T22:23:44.453Z,5.99
2024-01-05T22:26:47.305Z,5.94
2024-01-05T22:29:49.873Z,6.18
2024-01-05T22:32:52.314Z,6.13
2024-01-05T22:36:01.342Z,6.13
2024-01-05T22:39:06.347Z,6.21
2024-01-05T22:42:09.010Z,6.11
2024-01-05T22:45:11.679Z,5.85
2024-01-05T22:48:14.246Z,5.61
2024-01-05T22:51:29.371Z,5.52
2024-01-05T22:54:32.049Z,5.64
2024-01-05T22:57:34.506Z,5.30
2024-01-05T23:00:36.934Z,5.51
2024-01-05T23:03:39.466Z,5.29
2024-01-05T23:06:42.491Z,5.22
2024-01-05T23:09:45.249Z,5.20
2024-01-05T23:12:48.660Z,5.19
2024-01-05T23:15:51.480Z,5.15
2024-01-05T23:18:54.213Z,5.00
2024-01-05T23:21:56.860Z,5.22
2024-01-05T23:24:59.552Z,5.30
2024-01-05T23:28:02.151Z,5.23
2024-01-05T23:31:05.662Z,5.16
2024-01-05T23:34:16.237Z,5.21
2024-01-05T23:37:20.232Z,5.23
2024-01-05T23:40:22.901Z,5.32
2024-01-05T23:43:25.551Z,5.34
2024-01-05T23:46:28.207Z,5.40
2024-01-05T23:49:30.944Z,5.52
2024-01-05T23:52:33.807Z,5.57
2024-01-05T23:55:36.423Z,5.50
2024-01-05T23:58:39.082Z,5.54
